Time;durP1;ratioP1;P1;durP2;ratioP2;P2;SDS_P1;SDS_P2;PMS_P1;PMS_P2;Temp;Humidity;BMP_temperature;BMP_pressure;BME280_temperature;BME280_humidity;BME280_pressure;Samples;Min_cycle;Max_cycle;Signal;HPM_P1;HPM_P2
2022/03/24 00:01:43;;;;;;;46.80;24.52;;;7.00;99.90;;;;;;5115593;28;20135;-83
2022/03/24 00:04:08;;;;;;;47.28;25.02;;;7.20;99.90;;;;;;5115763;28;20035;-83
2022/03/24 00:06:34;;;;;;;45.97;25.33;;;6.90;99.90;;;;;;5115707;28;20097;-84
2022/03/24 00:09:00;;;;;;;42.33;24.40;;;6.90;99.90;;;;;;5115420;28;20035;-84
2022/03/24 00:11:26;;;;;;;47.53;25.40;;;7.30;99.90;;;;;;5116925;28;20130;-83
2022/03/24 00:13:52;;;;;;;45.05;25.60;;;6.90;99.90;;;;;;5115407;28;20087;-83
2022/03/24 00:16:19;;;;;;;47.38;24.73;;;6.90;99.90;;;;;;5098101;28;20456;-84
2022/03/24 00:18:45;;;;;;;44.20;24.17;;;6.90;99.90;;;;;;5115563;28;20047;-83
2022/03/24 00:21:12;;;;;;;46.55;25.55;;;7.40;99.90;;;;;;5115288;28;20040;-84
2022/03/24 00:27:18;;;;;;;43.47;23.67;;;6.90;99.90;;;;;;5116545;28;20393;-83
2022/03/24 00:29:45;;;;;;;47.55;24.70;;;6.80;99.90;;;;;;5115139;28;20044;-84
2022/03/24 00:32:11;;;;;;;46.88;25.05;;;7.30;99.90;;;;;;5114982;28;20050;-84
2022/03/24 00:34:37;;;;;;;46.50;23.90;;;7.10;99.90;;;;;;5114812;28;20134;-83
2022/03/24 00:37:04;;;;;;;46.83;25.30;;;6.80;99.90;;;;;;5115107;28;20051;-84
2022/03/24 00:39:34;;;;;;;46.60;26.42;;;6.80;99.90;;;;;;5115008;28;20493;-84
2022/03/24 00:42:03;;;;;;;53.53;27.85;;;6.70;99.90;;;;;;5114956;28;20457;-84
2022/03/24 00:44:28;;;;;;;51.53;28.00;;;6.70;99.90;;;;;;5121732;28;20054;-83
2022/03/24 00:46:55;;;;;;;50.38;27.10;;;6.60;99.90;;;;;;5115565;28;20040;-83
2022/03/24 00:49:21;;;;;;;46.75;26.02;;;6.60;99.90;;;;;;5114815;28;20051;-83
2022/03/24 00:51:48;;;;;;;44.90;25.15;;;6.50;99.90;;;;;;5114784;28;20393;-83
2022/03/24 00:54:18;;;;;;;52.28;26.33;;;6.50;99.90;;;;;;5114676;28;20051;-83
2022/03/24 00:56:45;;;;;;;52.17;27.50;;;6.80;99.90;;;;;;5116159;28;20036;-84
2022/03/24 00:59:11;;;;;;;47.28;25.23;;;6.50;99.90;;;;;;5114452;28;20104;-83
2022/03/24 01:01:39;;;;;;;50.17;27.20;;;6.50;99.90;;;;;;5114524;28;20083;-83
2022/03/24 01:04:06;;;;;;;47.60;26.40;;;6.40;99.90;;;;;;5114303;28;20040;-84
2022/03/24 01:06:34;;;;;;;50.35;26.40;;;6.40;99.90;;;;;;5114534;28;20054;-84
2022/03/24 01:09:00;;;;;;;51.55;26.58;;;6.40;99.90;;;;;;5114482;28;20039;-83
2022/03/24 01:11:26;;;;;;;51.80;26.83;;;6.40;99.90;;;;;;5116011;28;20120;-83
2022/03/24 01:13:52;;;;;;;47.30;26.20;;;6.40;99.90;;;;;;5114357;28;20047;-84
2022/03/24 01:16:18;;;;;;;52.00;26.17;;;6.30;99.90;;;;;;5115506;28;20035;-84
2022/03/24 01:18:44;;;;;;;55.00;28.33;;;7.00;99.90;;;;;;5114236;28;20097;-83
2022/03/24 01:21:11;;;;;;;53.72;28.02;;;6.30;99.90;;;;;;5114261;28;20541;-83
2022/03/24 01:27:18;;;;;;;55.92;27.17;;;6.20;99.90;;;;;;5116982;28;20123;-83
2022/03/24 01:29:44;;;;;;;51.70;27.23;;;6.20;99.90;;;;;;5114069;28;20079;-84
2022/03/24 01:32:11;;;;;;;55.58;27.83;;;6.10;99.90;;;;;;5115872;28;20044;-83
2022/03/24 01:34:37;;;;;;;54.05;28.75;;;6.10;99.90;;;;;;5113968;28;20047;-84
2022/03/24 01:37:06;;;;;;;56.35;28.65;;;6.10;99.90;;;;;;5113750;28;20044;-84
2022/03/24 01:39:32;;;;;;;54.00;28.50;;;6.00;99.90;;;;;;5096776;28;20055;-83
2022/03/24 01:42:00;;;;;;;53.60;28.33;;;6.00;99.90;;;;;;5113763;28;20032;-83
2022/03/24 01:44:27;;;;;;;59.28;29.48;;;5.90;99.90;;;;;;5115296;28;20085;-84
2022/03/24 01:47:05;;;;;;;54.55;27.88;;;5.90;99.90;;;;;;5113529;28;20485;-84
2022/03/24 01:49:39;;;;;;;55.22;29.80;;;5.80;99.90;;;;;;5113760;28;20052;-83
2022/03/24 01:52:08;;;;;;;53.22;28.48;;;5.80;99.90;;;;;;5113328;28;20040;-83
2022/03/24 01:54:36;;;;;;;56.42;28.75;;;5.80;99.90;;;;;;5115152;28;20477;-83
2022/03/24 01:57:03;;;;;;;56.05;28.98;;;5.80;99.90;;;;;;5115043;28;20047;-83
2022/03/24 01:59:29;;;;;;;59.13;30.25;;;5.70;99.90;;;;;;5114670;28;20063;-84
2022/03/24 02:01:55;;;;;;;54.70;29.27;;;5.70;99.90;;;;;;5113544;28;20032;-83
2022/03/24 02:04:21;;;;;;;54.75;28.65;;;5.60;99.90;;;;;;5113051;28;20081;-83
2022/03/24 02:06:47;;;;;;;55.00;28.20;;;5.60;99.90;;;;;;5113636;28;20079;-83
2022/03/24 02:09:14;;;;;;;59.15;29.85;;;5.90;99.90;;;;;;5113580;28;20518;-84
2022/03/24 02:11:40;;;;;;;57.45;28.98;;;5.80;99.90;;;;;;5113266;28;20079;-83
2022/03/24 02:14:06;;;;;;;54.72;29.58;;;5.50;99.90;;;;;;5113202;28;20039;-84
2022/03/24 02:16:38;;;;;;;59.05;30.38;;;5.50;99.90;;;;;;5114635;28;20051;-83
2022/03/24 02:19:17;;;;;;;56.90;28.52;;;5.50;99.90;;;;;;5113456;28;20066;-83
2022/03/24 02:21:44;;;;;;;60.63;29.40;;;5.40;99.90;;;;;;5112650;28;20059;-83
2022/03/24 02:24:12;;;;;;;58.55;30.65;;;5.40;99.90;;;;;;5112971;28;20043;-84
2022/03/24 02:26:40;;;;;;;54.03;30.05;;;5.30;99.90;;;;;;5112760;28;20047;-84
2022/03/24 02:29:06;;;;;;;55.97;29.98;;;5.30;99.90;;;;;;5113066;28;20513;-84
2022/03/24 02:31:38;;;;;;;55.30;30.50;;;5.30;99.90;;;;;;5114755;28;20059;-84
2022/03/24 02:36:52;;;;;;;59.35;30.00;;;5.30;99.90;;;;;;5135635;28;20044;-84
2022/03/24 02:39:18;;;;;;;62.60;31.70;;;5.30;99.90;;;;;;5135354;28;20050;-83
2022/03/24 02:41:50;;;;;;;69.13;32.80;;;5.30;99.90;;;;;;5130418;28;20028;-84
2022/03/24 02:44:17;;;;;;;60.53;31.67;;;5.20;99.90;;;;;;5129571;28;20050;-83
2022/03/24 02:46:46;;;;;;;67.85;31.80;;;5.20;99.90;;;;;;5117130;28;20580;-84
2022/03/24 02:49:12;;;;;;;66.18;33.13;;;5.10;99.90;;;;;;5116162;28;20067;-84
2022/03/24 02:51:37;;;;;;;65.15;33.25;;;5.10;99.90;;;;;;5114710;28;20055;-84
2022/03/24 02:54:04;;;;;;;61.28;31.35;;;5.10;99.90;;;;;;5114832;28;20040;-84
2022/03/24 02:56:30;;;;;;;61.72;32.97;;;5.10;99.90;;;;;;5113489;28;20054;-84
2022/03/24 02:58:56;;;;;;;68.57;33.78;;;5.20;99.90;;;;;;5114748;28;20101;-84
2022/03/24 03:01:25;;;;;;;69.47;33.33;;;5.00;99.90;;;;;;5113542;28;20055;-84
2022/03/24 03:03:52;;;;;;;67.07;32.92;;;4.90;99.90;;;;;;5096928;28;20047;-84
2022/03/24 03:06:19;;;;;;;70.57;34.38;;;4.90;99.90;;;;;;5113537;28;20086;-84
2022/03/24 03:12:28;;;;;;;70.93;34.25;;;4.80;99.90;;;;;;5114360;28;20058;-84
2022/03/24 03:14:56;;;;;;;69.22;34.75;;;4.80;99.90;;;;;;5114633;28;20047;-84
2022/03/24 03:17:21;;;;;;;70.63;34.30;;;4.80;99.90;;;;;;5099731;28;20036;-84
2022/03/24 03:19:47;;;;;;;68.28;33.83;;;4.80;99.90;;;;;;5116181;28;20116;-84
2022/03/24 03:22:16;;;;;;;69.95;35.38;;;4.70;99.90;;;;;;5117932;28;20046;-84
2022/03/24 03:24:42;;;;;;;72.88;36.63;;;4.70;99.90;;;;;;5116389;28;20055;-84
2022/03/24 03:27:08;;;;;;;69.90;35.58;;;4.70;99.90;;;;;;5116251;28;20039;-84
2022/03/24 03:29:34;;;;;;;68.85;35.45;;;4.70;99.90;;;;;;5116197;28;20104;-84
2022/03/24 03:32:02;;;;;;;68.03;35.00;;;4.80;99.90;;;;;;5116141;28;20050;-84
2022/03/24 03:34:27;;;;;;;79.38;37.20;;;4.70;99.90;;;;;;5116676;28;20100;-84
2022/03/24 03:36:55;;;;;;;74.28;36.78;;;4.70;99.90;;;;;;5116983;28;20039;-84
2022/03/24 03:39:21;;;;;;;71.97;35.10;;;4.60;99.90;;;;;;5116181;28;20056;-84
2022/03/24 03:41:46;;;;;;;77.68;35.67;;;4.60;99.90;;;;;;5115985;28;20042;-84
2022/03/24 03:44:12;;;;;;;74.97;36.42;;;4.60;99.90;;;;;;5116002;28;20408;-84
2022/03/24 03:46:37;;;;;;;72.13;34.97;;;4.60;99.90;;;;;;5115696;28;20048;-84
2022/03/24 03:49:04;;;;;;;83.10;38.90;;;4.60;99.90;;;;;;5115738;28;20126;-84
2022/03/24 03:51:31;;;;;;;78.50;38.00;;;4.60;99.90;;;;;;5115573;28;20075;-83
2022/03/24 03:57:38;;;;;;;82.68;40.05;;;4.60;99.90;;;;;;5117243;28;20119;-84
2022/03/24 04:02:50;;;;;;;87.72;42.05;;;4.60;99.90;;;;;;5115487;28;20047;-84
2022/03/24 04:05:16;;;;;;;81.68;39.65;;;4.80;99.90;;;;;;5115526;28;20051;-84
2022/03/24 04:07:42;;;;;;;84.65;41.45;;;4.70;99.90;;;;;;5115540;28;20051;-84
2022/03/24 04:10:08;;;;;;;80.05;37.25;;;4.70;99.90;;;;;;5115735;28;20046;-84
2022/03/24 04:12:34;;;;;;;80.82;38.67;;;4.70;99.90;;;;;;5115504;28;20043;-84
2022/03/24 04:14:59;;;;;;;85.43;39.85;;;4.70;99.90;;;;;;5115246;28;20047;-84
2022/03/24 04:17:27;;;;;;;90.07;42.80;;;4.70;99.90;;;;;;5115198;28;20404;-84
2022/03/24 04:19:52;;;;;;;85.93;40.55;;;4.70;99.90;;;;;;5117208;28;20052;-84
2022/03/24 04:22:18;;;;;;;85.03;42.75;;;4.70;99.90;;;;;;5116669;28;20044;-84
2022/03/24 04:24:43;;;;;;;82.63;39.67;;;4.70;99.90;;;;;;5115891;28;20036;-84
2022/03/24 04:27:09;;;;;;;84.25;40.10;;;5.10;99.90;;;;;;5115032;28;20070;-84
2022/03/24 04:29:35;;;;;;;81.43;39.30;;;4.60;99.90;;;;;;5115275;28;20085;-84
2022/03/24 04:32:01;;;;;;;83.22;39.60;;;4.60;99.90;;;;;;5115170;28;20044;-84
2022/03/24 04:34:26;;;;;;;83.32;41.03;;;4.60;99.90;;;;;;5117238;28;20054;-84
2022/03/24 04:36:52;;;;;;;86.97;41.17;;;4.60;99.90;;;;;;5101835;28;20389;-84
2022/03/24 04:39:17;;;;;;;84.40;39.83;;;4.60;99.90;;;;;;5115208;28;20054;-84
2022/03/24 04:41:43;;;;;;;82.35;39.92;;;4.50;99.90;;;;;;5115075;28;20040;-84
2022/03/24 04:44:09;;;;;;;77.95;38.78;;;4.50;99.90;;;;;;5114965;28;20054;-84
2022/03/24 04:46:34;;;;;;;86.55;41.70;;;4.60;99.90;;;;;;5114803;28;20089;-84
2022/03/24 04:49:02;;;;;;;85.65;41.28;;;4.50;99.90;;;;;;5116347;28;20381;-84
2022/03/24 04:51:27;;;;;;;84.72;40.40;;;4.50;99.90;;;;;;5114743;28;20054;-84
2022/03/24 04:57:34;;;;;;;92.13;44.22;;;4.50;99.90;;;;;;5115935;28;20034;-84
2022/03/24 04:59:59;;;;;;;97.18;44.78;;;4.80;99.90;;;;;;5114223;28;20043;-84
2022/03/24 05:02:25;;;;;;;93.18;43.03;;;4.40;99.90;;;;;;5114213;28;20051;-84
2022/03/24 05:04:53;;;;;;;98.95;44.55;;;4.40;99.90;;;;;;5114602;28;20048;-84
2022/03/24 05:07:19;;;;;;;93.72;43.20;;;4.40;99.90;;;;;;5114614;28;20035;-84
2022/03/24 05:09:45;;;;;;;89.38;42.67;;;4.40;99.90;;;;;;5116788;28;20051;-83
2022/03/24 05:12:11;;;;;;;93.40;43.40;;;4.40;99.90;;;;;;5097591;28;20039;-84
2022/03/24 05:14:37;;;;;;;96.35;44.80;;;4.30;99.90;;;;;;5114644;28;20116;-84
2022/03/24 05:17:03;;;;;;;101.00;45.83;;;4.30;99.90;;;;;;5114656;28;20042;-84
2022/03/24 05:19:30;;;;;;;98.32;45.30;;;4.30;99.90;;;;;;5115311;28;20469;-84
2022/03/24 05:28:40;;;;;;;103.05;45.95;;;4.20;99.90;;;;;;5115651;28;20053;-84
2022/03/24 05:31:06;;;;;;;104.40;47.42;;;4.40;99.90;;;;;;5114216;28;20051;-84
2022/03/24 05:33:33;;;;;;;105.95;47.17;;;4.30;99.90;;;;;;5115387;28;20059;-84
2022/03/24 05:35:59;;;;;;;102.80;47.60;;;4.30;99.90;;;;;;5113955;28;20047;-84
2022/03/24 05:38:26;;;;;;;99.13;45.42;;;4.30;99.90;;;;;;5113275;28;20043;-83
2022/03/24 05:40:52;;;;;;;104.40;46.05;;;4.30;99.90;;;;;;5116459;28;20365;-84
2022/03/24 05:43:17;;;;;;;97.43;43.83;;;4.20;99.90;;;;;;5117694;28;20039;-83
2022/03/24 05:45:43;;;;;;;105.57;46.75;;;4.20;99.90;;;;;;5114736;28;20047;-84
2022/03/24 05:48:09;;;;;;;101.38;47.20;;;4.20;99.90;;;;;;5115276;28;20040;-84
2022/03/24 05:50:35;;;;;;;103.45;46.83;;;4.20;99.90;;;;;;5113965;28;20051;-84
2022/03/24 05:53:02;;;;;;;106.63;46.80;;;4.30;99.90;;;;;;5096621;28;20048;-84
2022/03/24 05:55:29;;;;;;;103.78;46.28;;;4.30;99.90;;;;;;5096557;28;20041;-84
2022/03/24 05:57:54;;;;;;;110.82;48.42;;;4.30;99.90;;;;;;5113710;28;20058;-84
2022/03/24 06:00:21;;;;;;;101.57;46.60;;;4.30;99.90;;;;;;5114573;28;20494;-84
2022/03/24 06:02:47;;;;;;;109.90;48.42;;;4.40;99.90;;;;;;5113213;28;20048;-84
2022/03/24 06:05:14;;;;;;;104.65;48.38;;;4.40;99.90;;;;;;5114643;28;20040;-84
2022/03/24 06:07:40;;;;;;;111.80;49.58;;;4.50;99.90;;;;;;5096521;28;20098;-84
2022/03/24 06:10:08;;;;;;;108.82;48.72;;;4.50;99.90;;;;;;5115050;28;20055;-84
2022/03/24 06:12:35;;;;;;;108.78;49.60;;;4.60;99.90;;;;;;5113237;28;20078;-84
2022/03/24 06:15:05;;;;;;;109.55;47.80;;;4.60;99.90;;;;;;5114827;28;20046;-84
2022/03/24 06:17:31;;;;;;;111.47;50.20;;;4.60;99.90;;;;;;5114262;28;20470;-83
2022/03/24 06:19:57;;;;;;;117.35;51.80;;;4.70;99.90;;;;;;5112844;28;20044;-83
2022/03/24 06:22:23;;;;;;;113.93;52.15;;;4.80;99.90;;;;;;5112791;28;20089;-84
2022/03/24 06:24:48;;;;;;;112.50;52.55;;;4.80;99.90;;;;;;5114516;28;20039;-84
2022/03/24 06:27:17;;;;;;;111.72;50.63;;;4.80;99.90;;;;;;5113039;28;20045;-84
2022/03/24 06:29:43;;;;;;;116.68;51.92;;;4.90;99.90;;;;;;5114093;28;20056;-84
2022/03/24 06:32:09;;;;;;;114.28;50.58;;;4.90;99.90;;;;;;5112858;28;20046;-84
2022/03/24 06:34:34;;;;;;;108.78;50.83;;;5.00;99.90;;;;;;5095628;28;20401;-84
2022/03/24 06:37:01;;;;;;;111.10;50.45;;;5.10;99.90;;;;;;5096364;28;20125;-84
2022/03/24 06:43:09;;;;;;;108.75;49.67;;;5.20;99.90;;;;;;5114142;28;20046;-84
2022/03/24 06:45:36;;;;;;;113.03;49.95;;;5.50;99.90;;;;;;5096065;28;20117;-83
2022/03/24 06:48:04;;;;;;;113.32;49.20;;;5.40;99.90;;;;;;5114364;28;20036;-84
2022/03/24 06:50:29;;;;;;;114.95;49.78;;;5.50;99.90;;;;;;5102823;28;20039;-83
2022/03/24 06:52:55;;;;;;;112.53;50.58;;;5.50;99.90;;;;;;5104577;28;20092;-83
2022/03/24 06:55:21;;;;;;;116.63;50.85;;;5.60;99.90;;;;;;5118797;28;20096;-83
2022/03/24 06:57:47;;;;;;;115.68;50.65;;;5.70;99.90;;;;;;5118967;28;20112;-83
2022/03/24 07:00:15;;;;;;;113.55;49.30;;;5.70;99.90;;;;;;5099726;28;20055;-84
2022/03/24 07:02:45;;;;;;;112.40;51.65;;;5.80;99.90;;;;;;5100445;28;20401;-84
2022/03/24 07:05:14;;;;;;;111.32;49.60;;;5.90;99.90;;;;;;5118503;28;20039;-84
2022/03/24 07:07:41;;;;;;;115.57;49.50;;;6.00;99.90;;;;;;5099742;28;20051;-84
2022/03/24 07:10:07;;;;;;;114.97;50.97;;;6.00;99.90;;;;;;5103463;28;20093;-84
2022/03/24 07:12:34;;;;;;;112.18;50.05;;;6.10;99.90;;;;;;5118196;28;20051;-84
2022/03/24 07:15:00;;;;;;;109.75;50.20;;;6.40;99.90;;;;;;5099472;28;20054;-84
2022/03/24 07:17:25;;;;;;;107.55;49.08;;;6.20;99.90;;;;;;5118350;28;20087;-84
2022/03/24 07:19:51;;;;;;;109.07;50.65;;;6.30;99.90;;;;;;5099538;28;20139;-84
2022/03/24 07:22:17;;;;;;;109.65;52.05;;;6.40;99.90;;;;;;5099492;28;20385;-85
2022/03/24 07:24:43;;;;;;;108.68;49.95;;;6.50;99.90;;;;;;5099411;28;20055;-84
2022/03/24 07:27:10;;;;;;;109.10;51.65;;;6.60;99.90;;;;;;5099317;28;20047;-84
2022/03/24 07:29:35;;;;;;;105.20;49.08;;;6.80;99.90;;;;;;5099130;28;20051;-84
2022/03/24 07:32:02;;;;;;;109.93;49.78;;;6.90;99.90;;;;;;5117861;28;20044;-84
2022/03/24 07:34:29;;;;;;;105.03;48.33;;;7.10;99.90;;;;;;5117429;28;20053;-84
2022/03/24 07:36:55;;;;;;;99.20;47.80;;;7.10;99.90;;;;;;5099442;28;20089;-84
2022/03/24 07:43:01;;;;;;;95.70;46.67;;;7.40;99.90;;;;;;5117519;28;20489;-85
2022/03/24 07:45:27;;;;;;;100.15;48.28;;;7.60;99.90;;;;;;5117486;28;20039;-84
2022/03/24 07:48:07;;;;;;;100.65;47.70;;;7.70;99.90;;;;;;5099138;28;20141;-84
2022/03/24 07:50:34;;;;;;;94.03;46.97;;;8.20;99.90;;;;;;5098711;28;20048;-84
2022/03/24 07:53:18;;;;;;;97.38;46.08;;;7.90;99.90;;;;;;5098911;28;20050;-84
2022/03/24 07:55:46;;;;;;;95.85;45.50;;;8.60;99.90;;;;;;5117307;28;20062;-84
2022/03/24 07:58:13;;;;;;;99.50;46.90;;;8.20;99.90;;;;;;5098644;28;20051;-84
2022/03/24 08:00:39;;;;;;;95.13;45.53;;;8.60;99.90;;;;;;5116030;28;20090;-84
2022/03/24 08:03:10;;;;;;;93.57;45.15;;;8.50;99.90;;;;;;5098788;28;20188;-84
2022/03/24 08:05:35;;;;;;;92.75;45.33;;;8.70;99.90;;;;;;5098672;28;20050;-84
2022/03/24 08:08:03;;;;;;;94.32;45.63;;;8.90;99.90;;;;;;5116988;28;20043;-84
2022/03/24 08:10:29;;;;;;;85.25;42.88;;;9.00;99.90;;;;;;5098301;28;20520;-84
2022/03/24 08:12:54;;;;;;;81.53;42.22;;;9.70;99.90;;;;;;5099141;28;20075;-84
2022/03/24 08:15:20;;;;;;;74.38;38.97;;;9.40;99.90;;;;;;5098448;28;20074;-84
2022/03/24 08:17:46;;;;;;;80.57;40.33;;;9.70;99.90;;;;;;5098796;28;20389;-84
2022/03/24 08:20:12;;;;;;;74.75;39.00;;;9.90;99.90;;;;;;5098806;28;20047;-85
2022/03/24 08:22:38;;;;;;;72.45;36.75;;;10.30;99.90;;;;;;5098689;28;20075;-85
2022/03/24 08:25:08;;;;;;;71.68;36.38;;;10.10;99.90;;;;;;5115252;28;20061;-84
2022/03/24 08:27:37;;;;;;;71.90;36.30;;;10.30;99.90;;;;;;5115530;28;20396;-84
2022/03/24 08:30:04;;;;;;;69.32;36.35;;;10.40;99.90;;;;;;5116607;28;20546;-84
2022/03/24 08:32:30;;;;;;;67.20;35.35;;;10.60;99.90;;;;;;5114938;28;20408;-84
2022/03/24 08:34:56;;;;;;;72.20;37.05;;;10.80;99.90;;;;;;5116637;28;20039;-84
2022/03/24 08:37:21;;;;;;;68.00;35.28;;;11.20;99.90;;;;;;5081517;28;20044;-84
2022/03/24 08:43:28;;;;;;;67.20;35.30;;;11.00;99.90;;;;;;5116309;28;20542;-84
2022/03/24 08:45:54;;;;;;;66.20;35.10;;;11.40;99.90;;;;;;5097705;28;20082;-84
2022/03/24 08:48:19;;;;;;;65.72;35.30;;;11.30;99.90;;;;;;5116446;28;20054;-84
2022/03/24 08:50:45;;;;;;;66.95;36.22;;;11.40;99.90;;;;;;5116186;28;20397;-84
2022/03/24 08:53:10;;;;;;;73.38;37.67;;;11.50;99.90;;;;;;5097733;28;20050;-84
2022/03/24 08:55:36;;;;;;;72.22;37.63;;;11.60;99.90;;;;;;5097562;28;20100;-84
2022/03/24 08:58:02;;;;;;;69.65;35.83;;;11.80;99.90;;;;;;5120065;28;20043;-84
2022/03/24 09:00:28;;;;;;;66.78;34.55;;;12.00;99.90;;;;;;5116882;28;20108;-84
2022/03/24 09:02:55;;;;;;;63.47;34.40;;;12.10;99.90;;;;;;5135774;28;20421;-84
2022/03/24 09:05:21;;;;;;;68.93;35.65;;;12.20;99.90;;;;;;5117857;28;20051;-84
2022/03/24 09:07:47;;;;;;;60.72;33.38;;;12.90;99.90;;;;;;5109276;28;20439;-84
2022/03/24 09:10:15;;;;;;;62.50;33.75;;;12.50;99.90;;;;;;5099627;28;20055;-84
2022/03/24 09:12:44;;;;;;;58.03;31.83;;;12.60;99.90;;;;;;5118696;28;20040;-84
2022/03/24 09:15:11;;;;;;;59.15;31.17;;;12.70;99.90;;;;;;5116262;28;20054;-85
2022/03/24 09:17:38;;;;;;;56.67;32.13;;;12.80;99.90;;;;;;5114398;28;20040;-84
2022/03/24 09:20:09;;;;;;;52.42;28.48;;;13.20;99.90;;;;;;5097436;28;20518;-84
2022/03/24 09:22:39;;;;;;;50.08;28.73;;;13.10;99.90;;;;;;5115535;28;20512;-84
2022/03/24 09:25:05;;;;;;;51.42;29.05;;;13.30;99.90;;;;;;5115553;28;20078;-84
2022/03/24 09:27:32;;;;;;;53.10;29.25;;;13.40;99.90;;;;;;5114542;28;20051;-84
2022/03/24 09:29:57;;;;;;;54.17;28.67;;;13.50;99.90;;;;;;5114304;28;20537;-84
2022/03/24 09:32:24;;;;;;;48.00;27.42;;;13.70;99.90;;;;;;5113807;28;20082;-82
2022/03/24 09:34:50;;;;;;;49.05;27.40;;;13.70;99.90;;;;;;5096993;28;20062;-81
2022/03/24 09:37:18;;;;;;;50.55;27.20;;;14.00;99.90;;;;;;5097108;28;20048;-81
2022/03/24 09:43:26;;;;;;;44.63;25.70;;;14.10;99.90;;;;;;5120026;28;20046;-81
2022/03/24 09:45:53;;;;;;;43.42;25.10;;;14.30;99.90;;;;;;5119158;28;20445;-81
2022/03/24 09:48:18;;;;;;;45.40;25.75;;;14.30;99.90;;;;;;5101491;28;20039;-81
2022/03/24 09:50:44;;;;;;;46.65;26.98;;;14.40;99.90;;;;;;5101142;28;20046;-81
2022/03/24 09:53:12;;;;;;;48.80;27.33;;;14.60;99.90;;;;;;5101843;28;20098;-81
2022/03/24 09:55:38;;;;;;;50.85;28.33;;;14.60;99.90;;;;;;5104728;28;20107;-81
2022/03/24 09:58:06;;;;;;;45.72;27.65;;;14.70;99.90;;;;;;5103616;28;20044;-81
2022/03/24 10:00:32;;;;;;;50.65;27.05;;;14.80;99.90;;;;;;5103362;28;20060;-81
2022/03/24 10:03:18;;;;;;;50.40;27.48;;;14.90;99.90;;;;;;5102445;28;20098;-81
2022/03/24 10:06:07;;;;;;;40.67;25.33;;;15.00;99.90;;;;;;5101661;28;20082;-81
2022/03/24 10:08:34;;;;;;;40.88;25.30;;;15.10;99.90;;;;;;5100998;28;20066;-81
2022/03/24 10:11:05;;;;;;;41.40;25.63;;;15.20;99.90;;;;;;5101244;28;20039;-81
2022/03/24 10:13:49;;;;;;;41.92;24.77;;;15.30;99.90;;;;;;5134345;22;20040;-81
2022/03/24 10:16:38;;;;;;;43.08;24.77;;;15.40;99.90;;;;;;5101591;28;20110;-81
2022/03/24 10:19:14;;;;;;;38.80;24.33;;;15.50;99.90;;;;;;5084394;28;20415;-81
2022/03/24 10:21:49;;;;;;;42.95;24.73;;;15.70;99.90;;;;;;5115042;28;20051;-81
2022/03/24 10:24:21;;;;;;;39.03;24.30;;;15.70;99.90;;;;;;5080642;28;20043;-81
2022/03/24 10:26:55;;;;;;;43.33;25.05;;;15.90;99.90;;;;;;5097409;28;20047;-81
2022/03/24 10:29:23;;;;;;;45.50;24.88;;;16.00;99.90;;;;;;5114561;28;20436;-82
2022/03/24 10:31:56;;;;;;;36.53;23.23;;;16.10;99.90;;;;;;5079975;28;20039;-81
2022/03/24 10:34:39;;;;;;;43.47;24.20;;;16.30;99.90;;;;;;5096814;28;20039;-81
2022/03/24 10:37:07;;;;;;;38.58;23.73;;;16.40;99.90;;;;;;5096807;28;20044;-81
2022/03/24 10:39:38;;;;;;;36.90;23.83;;;16.50;99.90;;;;;;5113199;28;20071;-82
2022/03/24 10:42:17;;;;;;;36.30;22.38;;;16.60;99.90;;;;;;5113107;28;20043;-82
2022/03/24 10:45:10;;;;;;;35.38;21.58;;;16.60;99.90;;;;;;5113029;28;20092;-82
2022/03/24 10:47:52;;;;;;;40.97;24.90;;;16.70;99.90;;;;;;5113089;28;20052;-82
2022/03/24 10:50:32;;;;;;;36.63;22.42;;;16.70;99.90;;;;;;5114518;28;20047;-82
2022/03/24 10:53:07;;;;;;;35.22;21.05;;;16.70;99.90;;;;;;5113090;28;20051;-82
2022/03/24 10:55:45;;;;;;;34.70;21.15;;;16.90;99.90;;;;;;5113295;28;20066;-82
2022/03/24 10:58:18;;;;;;;36.58;22.25;;;16.90;99.90;;;;;;5113021;28;20052;-82
2022/03/24 11:00:46;;;;;;;37.25;21.58;;;17.10;99.90;;;;;;5096156;28;20055;-82
2022/03/24 11:03:12;;;;;;;32.10;20.30;;;17.10;99.90;;;;;;5113136;28;20234;-82
2022/03/24 11:05:38;;;;;;;38.85;22.52;;;17.10;99.90;;;;;;5112772;28;20466;-82
2022/03/24 11:08:08;;;;;;;39.13;22.35;;;17.30;99.90;;;;;;5095911;28;20040;-82
2022/03/24 11:10:45;;;;;;;36.97;21.08;;;17.20;99.90;;;;;;5112753;28;20559;-82
2022/03/24 11:13:13;;;;;;;35.50;21.48;;;17.30;99.90;;;;;;5119905;28;20043;-83
2022/03/24 11:15:41;;;;;;;37.63;22.27;;;17.40;99.90;;;;;;5125924;28;20122;-82
2022/03/24 11:18:09;;;;;;;37.38;22.13;;;17.50;99.90;;;;;;5109007;28;20089;-82
2022/03/24 11:20:37;;;;;;;41.17;22.60;;;17.60;99.90;;;;;;5137841;28;20058;-82
2022/03/24 11:23:31;;;;;;;33.17;20.60;;;17.60;99.90;;;;;;5118431;28;20051;-82
2022/03/24 11:25:57;;;;;;;34.65;19.55;;;17.70;97.80;;;;;;5116885;28;20130;-82
2022/03/24 11:28:23;;;;;;;38.47;22.40;;;17.80;99.60;;;;;;5133067;28;20126;-83
2022/03/24 11:30:51;;;;;;;40.67;23.35;;;17.80;97.70;;;;;;5115940;28;20051;-82
2022/03/24 11:33:17;;;;;;;38.03;22.13;;;17.80;98.80;;;;;;5115643;28;20042;-82
2022/03/24 11:35:43;;;;;;;40.05;22.73;;;17.90;98.40;;;;;;5134414;27;20122;-82
2022/03/24 11:38:09;;;;;;;42.30;23.15;;;18.00;99.60;;;;;;5119770;27;20043;-82
2022/03/24 11:40:36;;;;;;;34.28;21.98;;;18.30;99.30;;;;;;5102988;27;20066;-85
2022/03/24 11:43:08;;;;;;;40.80;22.67;;;18.30;99.00;;;;;;5103547;27;20500;-82
2022/03/24 11:45:52;;;;;;;37.95;23.63;;;18.30;97.10;;;;;;5121039;27;20039;-82
2022/03/24 11:48:30;;;;;;;38.05;23.15;;;18.20;95.80;;;;;;5139889;27;20035;-82
2022/03/24 11:50:56;;;;;;;41.03;24.17;;;18.20;97.70;;;;;;5103675;27;20035;-82
2022/03/24 11:53:28;;;;;;;37.75;23.65;;;18.30;97.30;;;;;;5120310;27;20393;-82
2022/03/24 11:56:02;;;;;;;37.35;22.92;;;18.30;96.10;;;;;;5104018;27;20039;-82
2022/03/24 11:58:29;;;;;;;38.33;23.13;;;18.30;97.00;;;;;;5119475;27;20047;-83
2022/03/24 12:00:56;;;;;;;39.22;22.95;;;18.40;96.60;;;;;;5136657;27;20107;-83
2022/03/24 12:04:01;;;;;;;37.30;22.25;;;18.40;95.90;;;;;;5119650;27;20088;-83
2022/03/24 12:06:42;;;;;;;37.13;22.42;;;18.70;93.40;;;;;;5018284;28;20057;-82
2022/03/24 12:09:15;;;;;;;36.75;21.10;;;18.70;93.50;;;;;;5001438;28;20080;-83
2022/03/24 12:12:03;;;;;;;34.33;20.67;;;18.90;94.20;;;;;;5017624;28;20585;-83
2022/03/24 12:14:35;;;;;;;36.30;21.45;;;18.90;93.40;;;;;;5033918;28;20471;-83
2022/03/24 12:17:15;;;;;;;33.88;21.40;;;19.00;93.60;;;;;;5001393;28;20132;-85
2022/03/24 12:19:42;;;;;;;35.80;21.75;;;18.80;93.40;;;;;;5017611;28;20045;-84
2022/03/24 12:22:26;;;;;;;40.03;22.58;;;19.10;93.70;;;;;;5017454;28;20046;-85
2022/03/24 12:24:53;;;;;;;34.05;22.17;;;19.10;92.70;;;;;;5017418;28;20045;-85
2022/03/24 12:27:19;;;;;;;35.38;21.55;;;19.30;94.30;;;;;;5017316;28;20073;-85
2022/03/24 12:30:09;;;;;;;37.78;23.33;;;19.50;94.20;;;;;;5017058;28;20088;-85
2022/03/24 12:32:35;;;;;;;38.50;22.65;;;19.60;92.90;;;;;;5017043;28;20053;-85
2022/03/24 12:35:02;;;;;;;38.72;22.73;;;19.30;92.40;;;;;;5017013;28;20072;-85
2022/03/24 12:37:31;;;;;;;36.67;23.63;;;19.40;93.00;;;;;;5017144;28;20057;-85
2022/03/24 12:40:22;;;;;;;33.53;22.55;;;19.20;92.70;;;;;;5017163;28;20556;-86
2022/03/24 12:42:51;;;;;;;36.67;22.33;;;19.50;92.50;;;;;;5070701;27;20104;-86
2022/03/24 12:45:25;;;;;;;39.45;23.35;;;19.60;92.50;;;;;;5118413;27;20047;-86
2022/03/24 12:47:52;;;;;;;37.63;22.50;;;19.80;92.50;;;;;;5100923;27;20541;-86
2022/03/24 12:50:17;;;;;;;33.78;20.65;;;19.80;93.20;;;;;;5101484;27;20043;-86
2022/03/24 12:52:52;;;;;;;35.10;22.98;;;19.80;92.90;;;;;;5135460;27;20096;-86
2022/03/24 12:55:32;;;;;;;38.33;23.30;;;20.10;92.70;;;;;;5100894;27;20404;-86
2022/03/24 12:57:58;;;;;;;36.33;23.13;;;20.10;91.40;;;;;;5101169;27;20035;-86
2022/03/24 13:00:30;;;;;;;35.50;23.35;;;19.90;90.90;;;;;;5101387;27;20039;-86
2022/03/24 13:02:57;;;;;;;34.00;22.95;;;20.10;90.90;;;;;;5101074;27;20100;-85
2022/03/24 13:05:32;;;;;;;34.72;22.38;;;20.20;91.10;;;;;;5117961;27;20047;-86
2022/03/24 13:07:59;;;;;;;39.63;22.48;;;20.40;90.20;;;;;;5117944;27;20086;-86
2022/03/24 13:10:31;;;;;;;33.17;22.30;;;20.50;90.30;;;;;;5118015;27;20043;-86
2022/03/24 13:13:00;;;;;;;32.95;21.50;;;20.70;90.50;;;;;;5101216;27;20053;-85
2022/03/24 13:15:34;;;;;;;39.63;23.30;;;20.70;90.20;;;;;;5100623;27;20051;-85
2022/03/24 13:18:09;;;;;;;43.15;23.27;;;20.80;88.30;;;;;;5118137;27;20039;-85
2022/03/24 13:20:45;;;;;;;34.40;21.90;;;20.80;89.60;;;;;;5101553;27;20035;-85
2022/03/24 13:23:13;;;;;;;35.80;22.73;;;21.10;87.00;;;;;;5118366;27;20049;-85